world map with SNX marked

SNX - Airport

This information may not be accurate or current and is not valid for navigation or flight planning. No warranty of fitness for any purpose is made or implied.

flag of Iran

Donate via PayPal

Additional information is available on the NEW Great Circle Mapper

Location
City:  Semnan, Semnan, Iran
Name:Semnan Municipal Airport
ICAO / IATA:OIIS / SNX

Details
Type:Airport (Aerodrome, Airfield)
Latitude:35°35'28"N (35.591094)
Longitude:53°29'42"E (53.495086)
Datum:WGS 1984
Elevation:3665 ft (1117 m)

Time
Timezone:UTC+3:30 (DST+6:30)
Local Time:

Weather
METAR:OIIS  041400Z 02010KT 9999 FEW030 SCT200 06/M07 Q1023
TAF:OIIS  (expired)

Related Locations
Nearby:
Farthest:NEMO: 11500 mi / 18507 km
Pacific Ocean [Oceanic Pole of Inaccessibility (Point Nemo)]

Find:

   beyond  
but within

Other Information
Maps:
Sources:

  


 


Great Circle Mapper   Great Circle Mapper
Great Circle Mapper FAQ   Great Circle Mapper FAQ
  Karl's Home Page
KLSē   KLSē Home
   GC on Facebook
Airlines of the World   Airlines of the World
Donate via PayPal


Copyright © 2004-2019, Karl L. Swartz. All rights reserved.
All trademarks mentioned herein belong to their respective owners.

Please see credits for attribution and copyright information.

Karl Swartz <karl@kls2.com>
  Powered by FreeBSD
Valid HTML 4.01!
Labeled with ICRA
hCard Microformat
Geo Microformat